Blythe, CA (92225)

11:18 AM PDT on April 24, 2017 (GMT -0700)
farmerman92225 | | Change Station

Elev 259 ft 33.62 °N, 114.66 °W | Updated 3 minutes ago

Partly Cloudy
Partly Cloudy
83.4 °F
Feels Like 81 °F
N
7.0
Wind Variable Wind from SSE
Gusts 8.0 mph

Today
High -- | Low -- °F
--% Chance of Precip.
Yesterday
High -- | Low -- °F
Precip. -- in
Pressure 29.73 in
Visibility 10.0 miles
Clouds Clear
Heat Index 81 °F
Dew Point 38 °F
Humidity 20%
Rainfall 0.00 in
Snow Depth Not available.
5:57 AM 7:16 PM
Waning Crescent, 4% visible
METAR KBLH 241752Z AUTO 19009KT 10SM CLR 28/M01 A2974 RMK AO2 SLP066 T02781006 10278 20156 50007
Pressure 29.73 in
Visibility 10.0 miles
Clouds Clear
Heat Index 81 °F
Dew Point 38 °F
Humidity 20%
Rainfall 0.00 in
Snow Depth Not available.
5:57 AM 7:16 PM
Waning Crescent, 4% visible
METAR KBLH 241752Z AUTO 19009KT 10SM CLR 28/M01 A2974 RMK AO2 SLP066 T02781006 10278 20156 50007

Get Severe Weather Alerts

Thanks for signing up!

Be on the lookout for a verification email in your inbox.

You'll start receiving the daily forecast at 8 AM.

×

10-Day Weather Forecast

Almanac

Astronomy

Apr. 24, 2017 Rise Set
Actual Time
Civil Twilight
Nautical Twilight
Astronomical Twilight
Moon
Length of Visible Light
Length of Day
Tomorrow will be .
, % of the Moon is Illuminated

Today's Extremes

State Highs State Lows

Community

WunderPhotos

WunderBlog® & News

Nearby

Air Quality

  Air Quality AQ Index Pollutant
Not available.

Snow Depth

Station Depth Elevation

Earthquake Activity

City Distance Mag. Time & Date
Minimum magnitude displayed is 2.5.

Coastal Water Temperatures

Place Temperature

Stations

Nearby Weather Stations

Station Location Temp. Windchill Dew Point Humidity Wind Precip. Elev Updated Type
                   

Watches & Warnings

There are currently no watches in effect.